Time;durP1;ratioP1;P1;durP2;ratioP2;P2;SDS_P1;SDS_P2;PMS_P1;PMS_P2;Temp;Humidity;BMP_temperature;BMP_pressure;BME280_temperature;BME280_humidity;BME280_pressure;Samples;Min_cycle;Max_cycle;Signal;HPM_P1;HPM_P2
2024/01/12 04:58:41;;;;;;;31.52;18.25;;;;;;;1.84;70.61;101212.47;5606651;31;81714;-54
2024/01/12 05:01:43;;;;;;;26.70;16.77;;;;;;;1.84;70.61;101212.47;5603570;31;34112;-54
2024/01/12 05:04:46;;;;;;;29.98;17.90;;;;;;;1.49;100.00;101235.59;5598063;31;33759;-55
2024/01/12 05:07:51;;;;;;;28.58;17.65;;;;;;;1.65;100.00;101247.59;5595043;31;34276;-53
2024/01/12 05:10:54;;;;;;;25.92;16.87;;;;;;;1.77;100.00;101246.00;5599902;31;33604;-54
2024/01/12 05:13:57;;;;;;;32.20;19.08;;;;;;;1.74;94.68;101242.97;5603201;31;33520;-54
2024/01/12 05:16:59;;;;;;;27.08;18.87;;;;;;;1.89;100.00;101254.19;5602177;31;33789;-54
2024/01/12 05:20:06;;;;;;;29.37;17.35;;;;;;;1.72;76.27;101250.25;5593442;31;33534;-54
2024/01/12 05:23:11;;;;;;;127.15;25.00;;;;;;;1.91;100.00;101246.03;5602552;31;33657;-54
2024/01/12 05:26:14;;;;;;;29.25;19.23;;;;;;;1.97;100.00;101250.53;5600319;31;34262;-55
2024/01/12 05:29:16;;;;;;;25.30;17.08;;;;;;;1.77;81.28;101261.06;5596908;31;32126;-54
2024/01/12 05:32:19;;;;;;;26.65;16.52;;;;;;;1.57;100.00;101261.03;5585441;31;34352;-54
2024/01/12 05:35:21;;;;;;;25.48;15.80;;;;;;;1.51;83.50;101259.16;5596798;31;33460;-54
2024/01/12 05:38:24;;;;;;;27.55;17.27;;;;;;;1.64;97.57;101269.78;5602248;31;33690;-54
2024/01/12 05:41:26;;;;;;;25.05;16.17;;;;;;;1.39;73.39;101272.13;5602549;31;33764;-54
2024/01/12 05:44:29;;;;;;;25.62;16.48;;;;;;;1.48;71.82;101276.22;5602208;31;34323;-55
2024/01/12 05:47:32;;;;;;;25.75;16.95;;;;;;;1.35;100.00;101284.91;5584784;31;33946;-54
2024/01/12 05:50:35;;;;;;;25.60;17.52;;;;;;;1.43;90.45;101289.22;5583644;31;33703;-58
2024/01/12 05:53:37;;;;;;;26.35;15.55;;;;;;;1.62;100.00;101285.84;5582344;31;34326;-58
2024/01/12 05:56:40;;;;;;;25.45;16.67;;;;;;;1.59;75.43;101291.53;5582809;32;32239;-58
2024/01/12 05:59:42;;;;;;;29.12;17.40;;;;;;;1.71;95.83;101293.59;5583270;31;34286;-59
2024/01/12 06:02:45;;;;;;;24.00;16.58;;;;;;;1.43;100.00;101288.41;5584613;31;33643;-59
2024/01/12 06:05:50;;;;;;;95.72;21.37;;;;;;;1.18;84.68;101295.00;5576544;31;33545;-59
2024/01/12 06:08:52;;;;;;;26.77;18.35;;;;;;;1.51;100.00;101281.13;5559533;32;33591;-59
2024/01/12 06:11:57;;;;;;;24.05;16.15;;;;;;;1.23;76.22;101294.44;5556698;32;34374;-59
2024/01/12 06:14:59;;;;;;;24.35;15.30;;;;;;;1.60;87.97;101290.50;5565754;32;33856;-58
2024/01/12 06:18:02;;;;;;;23.25;15.07;;;;;;;1.29;85.81;101285.72;5550625;32;33543;-58
2024/01/12 06:21:05;;;;;;;25.73;16.15;;;;;;;1.26;74.36;101304.59;5555892;31;34305;-59
2024/01/12 06:24:11;;;;;;;23.90;15.82;;;;;;;1.32;74.68;101301.16;5554974;32;33581;-59
2024/01/12 06:27:14;;;;;;;22.58;14.27;;;;;;;1.28;73.14;101309.69;5566479;31;33585;-59
2024/01/12 06:30:16;;;;;;;28.25;15.13;;;;;;;1.35;80.40;101311.31;5564867;31;34271;-57
2024/01/12 06:33:19;;;;;;;26.90;14.90;;;;;;;1.41;85.51;101317.66;5558065;32;33705;-58
2024/01/12 06:36:21;;;;;;;23.73;14.73;;;;;;;1.31;78.66;101310.09;5568350;31;33825;-60
2024/01/12 06:39:24;;;;;;;20.45;12.90;;;;;;;1.27;76.23;101310.69;5563591;32;34326;-60
2024/01/12 06:42:28;;;;;;;24.63;12.45;;;;;;;1.36;71.94;101306.88;5573833;31;33496;-58
2024/01/12 06:45:30;;;;;;;19.85;13.25;;;;;;;1.34;91.31;101312.34;5579375;31;33752;-60
2024/01/12 06:48:34;;;;;;;23.70;12.95;;;;;;;1.44;77.33;101308.53;5566146;32;33568;-57
2024/01/12 06:51:36;;;;;;;21.98;12.05;;;;;;;1.55;87.11;101313.25;5561388;31;34200;-59
2024/01/12 06:54:43;;;;;;;19.77;13.00;;;;;;;1.48;75.39;101315.06;5567843;31;33787;-58
2024/01/12 06:57:46;;;;;;;42.30;12.57;;;;;;;1.71;100.00;101327.94;5562624;31;33609;-59
2024/01/12 07:00:49;;;;;;;35.72;11.55;;;;;;;1.60;84.36;101324.87;5555075;32;33459;-57
2024/01/12 07:03:52;;;;;;;21.60;12.05;;;;;;;1.40;74.97;101330.06;5567981;31;32250;-58
2024/01/12 07:06:54;;;;;;;19.55;12.40;;;;;;;1.46;77.83;101323.19;5560807;32;33635;-59
2024/01/12 07:09:56;;;;;;;24.80;12.93;;;;;;;1.49;100.00;101338.66;5567006;32;34751;-60
2024/01/12 07:12:59;;;;;;;20.25;12.23;;;;;;;1.27;85.19;101337.12;5567427;32;34448;-59
2024/01/12 07:16:01;;;;;;;22.92;11.80;;;;;;;1.51;97.22;101349.00;5553182;32;33429;-59
2024/01/12 07:19:04;;;;;;;19.65;11.43;;;;;;;1.50;100.00;101357.97;5560329;32;33671;-58
2024/01/12 07:22:07;;;;;;;24.58;14.82;;;;;;;1.52;85.60;101358.56;5567331;32;33717;-60
2024/01/12 07:25:09;;;;;;;19.85;12.07;;;;;;;1.37;76.93;101361.34;5568008;32;34188;-60
2024/01/12 07:28:12;;;;;;;20.92;13.55;;;;;;;1.49;73.36;101372.16;5568698;32;33829;-60
2024/01/12 07:31:14;;;;;;;17.75;10.88;;;;;;;1.94;99.44;101365.44;5566374;32;33706;-59
2024/01/12 07:34:17;;;;;;;19.77;10.68;;;;;;;1.92;80.81;101372.78;5576413;31;33613;-59
2024/01/12 07:37:20;;;;;;;18.25;11.35;;;;;;;2.27;100.00;101368.16;5560234;31;33671;-60
2024/01/12 07:40:22;;;;;;;15.65;10.55;;;;;;;1.99;72.67;101373.59;5565503;31;33666;-59
2024/01/12 07:43:27;;;;;;;18.80;11.73;;;;;;;2.02;86.98;101375.84;5551450;31;33761;-60
2024/01/12 07:46:29;;;;;;;23.23;11.20;;;;;;;1.87;97.35;101373.34;5556768;31;33218;-59
2024/01/12 07:49:33;;;;;;;17.92;11.50;;;;;;;1.71;82.71;101373.69;5549401;32;34083;-60
2024/01/12 07:52:35;;;;;;;19.50;12.63;;;;;;;1.81;80.73;101382.06;5560439;32;34251;-59
2024/01/12 07:55:38;;;;;;;16.90;11.38;;;;;;;1.84;73.69;101384.31;5564499;32;33053;-59
2024/01/12 07:58:40;;;;;;;20.08;12.43;;;;;;;1.77;78.09;101385.31;5555264;32;33578;-60
2024/01/12 08:01:44;;;;;;;19.45;11.20;;;;;;;2.30;100.00;101390.78;5558004;31;33613;-60
2024/01/12 08:04:46;;;;;;;195.95;25.23;;;;;;;1.99;78.70;101389.47;5568197;32;33587;-60
2024/01/12 08:07:49;;;;;;;17.85;10.63;;;;;;;2.60;100.00;101396.53;5562590;31;34201;-59
2024/01/12 08:10:52;;;;;;;16.85;10.25;;;;;;;2.52;84.49;101397.53;5566353;32;33636;-59
2024/01/12 08:13:54;;;;;;;16.83;9.85;;;;;;;2.47;78.11;101399.97;5569075;32;33695;-60
2024/01/12 08:16:57;;;;;;;16.37;10.20;;;;;;;2.67;78.09;101404.47;5566884;32;33821;-60
2024/01/12 08:19:59;;;;;;;15.20;9.30;;;;;;;2.69;89.35;101405.91;5566152;31;33075;-60
2024/01/12 08:23:01;;;;;;;14.50;9.70;;;;;;;2.80;75.57;101402.63;5563078;32;33550;-60
2024/01/12 08:26:04;;;;;;;17.15;9.77;;;;;;;2.63;70.53;101408.53;5563156;32;33665;-60
2024/01/12 08:29:07;;;;;;;14.30;9.77;;;;;;;2.70;66.58;101412.00;5552091;32;32532;-59
2024/01/12 08:32:09;;;;;;;16.30;10.32;;;;;;;2.76;86.12;101411.19;5564930;31;34409;-59
2024/01/12 08:35:12;;;;;;;22.87;14.63;;;;;;;2.75;67.89;101418.34;5569839;31;33705;-58
2024/01/12 08:38:14;;;;;;;19.87;10.73;;;;;;;3.09;100.00;101423.63;5565140;31;33034;-60
2024/01/12 08:41:17;;;;;;;18.27;11.57;;;;;;;3.24;85.24;101424.22;5560995;31;33670;-60
2024/01/12 08:44:19;;;;;;;16.60;10.10;;;;;;;3.91;100.00;101425.69;5561367;32;34253;-60
2024/01/12 08:47:22;;;;;;;15.80;9.90;;;;;;;3.74;67.39;101424.50;5560407;32;33785;-59
2024/01/12 08:50:24;;;;;;;13.07;8.95;;;;;;;3.62;64.26;101431.50;5565224;31;34491;-60
2024/01/12 08:53:28;;;;;;;16.62;10.57;;;;;;;3.33;64.50;101430.13;5566308;32;33857;-60
2024/01/12 08:56:30;;;;;;;14.98;9.73;;;;;;;3.34;65.04;101432.56;5566559;32;34129;-60
2024/01/12 08:59:33;;;;;;;15.85;9.55;;;;;;;4.05;99.23;101436.25;5568047;31;33323;-59
2024/01/12 09:02:35;;;;;;;13.65;8.38;;;;;;;4.17;88.35;101440.69;5560245;32;33914;-59
2024/01/12 09:05:38;;;;;;;15.00;10.13;;;;;;;3.79;62.06;101437.97;5565073;32;33706;-60
2024/01/12 09:08:40;;;;;;;15.90;9.35;;;;;;;3.71;61.88;101438.22;5566173;32;33736;-60
2024/01/12 09:11:44;;;;;;;15.65;9.07;;;;;;;3.45;61.67;101442.53;5573140;31;34162;-60
2024/01/12 09:14:47;;;;;;;15.75;9.40;;;;;;;3.53;64.37;101449.47;5559999;31;34273;-60
2024/01/12 09:17:49;;;;;;;15.55;9.02;;;;;;;3.25;61.21;101447.88;5579124;31;33362;-60
2024/01/12 09:20:52;;;;;;;17.17;9.07;;;;;;;3.16;64.27;101450.94;5570429;31;34289;-59
2024/01/12 09:23:54;;;;;;;16.30;9.88;;;;;;;3.16;68.34;101454.41;5562310;32;32898;-60
2024/01/12 09:26:57;;;;;;;15.25;9.52;;;;;;;3.26;63.10;101457.44;5564418;31;33718;-59
2024/01/12 09:29:59;;;;;;;13.43;9.38;;;;;;;3.38;63.65;101464.75;5563807;32;33595;-59
2024/01/12 09:33:02;;;;;;;15.95;9.68;;;;;;;3.20;64.11;101462.75;5564038;31;33744;-60
2024/01/12 09:36:05;;;;;;;17.77;9.93;;;;;;;3.28;65.04;101454.59;5572123;31;33428;-60
2024/01/12 09:39:14;;;;;;;322.10;30.02;;;;;;;3.71;65.19;101448.81;5553904;32;33823;-60
2024/01/12 09:42:21;;;;;;;26.73;9.77;;;;;;;3.83;63.58;101456.94;5562716;31;34371;-59
2024/01/12 09:45:25;;;;;;;17.75;9.60;;;;;;;3.66;59.57;101460.03;5550726;32;34275;-60
2024/01/12 09:48:29;;;;;;;15.25;9.10;;;;;;;3.74;61.29;101454.53;5552632;32;33353;-60
2024/01/12 09:51:32;;;;;;;16.90;10.07;;;;;;;3.50;62.65;101452.53;5553670;32;34048;-60
2024/01/12 09:54:35;;;;;;;14.32;9.25;;;;;;;3.46;61.57;101464.56;5572811;31;33731;-59
2024/01/12 09:57:38;;;;;;;17.25;9.88;;;;;;;3.59;61.34;101461.06;5565031;31;34275;-58
2024/01/12 10:00:43;;;;;;;16.40;9.23;;;;;;;3.34;58.73;101452.94;5550409;32;34310;-60
2024/01/12 10:03:47;;;;;;;134.27;16.92;;;;;;;3.64;73.21;101453.31;5564451;32;33661;-60
2024/01/12 10:06:49;;;;;;;15.60;9.48;;;;;;;4.26;81.81;101451.84;5565708;32;33624;-59
2024/01/12 10:09:52;;;;;;;17.73;10.43;;;;;;;3.99;61.10;101459.94;5562734;32;33935;-60
2024/01/12 10:12:55;;;;;;;16.75;9.25;;;;;;;3.92;58.39;101455.69;5563307;31;33711;-59
2024/01/12 10:15:57;;;;;;;15.15;9.95;;;;;;;3.52;62.29;101453.94;5556199;32;33856;-59
2024/01/12 10:18:59;;;;;;;20.40;10.60;;;;;;;3.73;59.36;101447.56;5562859;32;34354;-59
2024/01/12 10:22:03;;;;;;;17.80;10.73;;;;;;;3.62;59.45;101448.22;5559962;32;33626;-60
2024/01/12 10:25:07;;;;;;;20.88;10.48;;;;;;;3.91;68.98;101451.41;5559484;31;33449;-60
2024/01/12 10:28:16;;;;;;;16.00;9.85;;;;;;;4.23;80.55;101452.28;5567569;32;33696;-60
2024/01/12 10:31:19;;;;;;;14.90;9.57;;;;;;;3.95;62.86;101447.31;5560832;32;33835;-57
2024/01/12 10:34:24;;;;;;;22.15;10.15;;;;;;;3.92;63.25;101451.19;5561518;32;34429;-56
2024/01/12 10:37:26;;;;;;;14.68;9.25;;;;;;;3.64;58.02;101448.84;5561903;32;34173;-58
2024/01/12 10:40:29;;;;;;;17.30;9.98;;;;;;;3.82;62.40;101442.06;5560979;32;33120;-57
2024/01/12 10:43:36;;;;;;;17.85;10.10;;;;;;;3.80;72.45;101441.44;5562037;31;33654;-58
2024/01/12 10:46:45;;;;;;;15.23;10.02;;;;;;;4.40;100.00;101439.31;5557903;32;33654;-57
2024/01/12 10:49:59;;;;;;;15.43;9.50;;;;;;;4.70;69.95;101436.87;5567831;31;33963;-57
2024/01/12 10:53:14;;;;;;;16.05;9.75;;;;;;;4.56;67.76;101433.50;5556002;32;33580;-57
2024/01/12 10:56:17;;;;;;;14.82;10.05;;;;;;;4.85;93.60;101433.94;5559729;32;33747;-57
2024/01/12 10:59:21;;;;;;;16.85;9.55;;;;;;;5.11;92.49;101424.94;5565862;31;33731;-57
2024/01/12 11:02:24;;;;;;;14.82;9.25;;;;;;;4.59;67.58;101425.12;5566362;32;33267;-57
2024/01/12 11:05:28;;;;;;;13.48;8.63;;;;;;;4.85;63.09;101425.97;5564007;32;33400;-57
2024/01/12 11:08:31;;;;;;;16.08;9.13;;;;;;;4.69;58.96;101421.97;5567211;32;34225;-57
2024/01/12 11:11:43;;;;;;;15.65;9.45;;;;;;;4.31;56.28;101419.38;5561878;32;33544;-57
2024/01/12 11:14:45;;;;;;;16.83;9.93;;;;;;;4.52;69.13;101423.53;5557754;32;33639;-57
2024/01/12 11:17:48;;;;;;;14.43;8.85;;;;;;;4.66;70.02;101406.47;5560594;32;33713;-56
2024/01/12 11:21:02;;;;;;;15.88;9.20;;;;;;;4.55;64.43;101418.62;5565482;32;33706;-57
2024/01/12 11:24:05;;;;;;;15.60;9.23;;;;;;;4.31;59.13;101417.53;5560849;32;33957;-57
2024/01/12 11:27:10;;;;;;;18.25;8.88;;;;;;;4.13;63.01;101417.41;5563390;32;33582;-57
2024/01/12 11:30:16;;;;;;;14.95;9.32;;;;;;;4.44;75.82;101411.34;5560626;31;34431;-57
2024/01/12 11:33:19;;;;;;;18.45;10.20;;;;;;;4.35;57.30;101405.47;5567088;32;33192;-57
2024/01/12 11:36:26;;;;;;;15.05;9.15;;;;;;;4.43;62.08;101410.50;5567756;32;33703;-57
2024/01/12 11:39:33;;;;;;;15.43;9.63;;;;;;;4.12;57.17;101416.59;5559257;32;34335;-57
2024/01/12 11:42:38;;;;;;;15.45;10.00;;;;;;;4.24;62.75;101409.63;5569300;31;33418;-56
2024/01/12 11:45:41;;;;;;;17.65;9.63;;;;;;;3.97;58.48;101410.75;5588505;31;33750;-55
2024/01/12 11:48:44;;;;;;;17.17;9.88;;;;;;;3.60;57.32;101405.19;5566948;31;33904;-56
2024/01/12 11:51:47;;;;;;;14.50;9.00;;;;;;;3.68;65.38;101397.00;5562261;32;33757;-56
2024/01/12 11:54:50;;;;;;;14.98;9.82;;;;;;;3.80;60.23;101394.50;5555174;32;33761;-55
2024/01/12 11:57:54;;;;;;;15.57;9.63;;;;;;;4.24;91.33;101390.22;5567454;32;33684;-55
2024/01/12 12:00:56;;;;;;;14.82;9.25;;;;;;;4.23;59.13;101397.34;5566263;32;33592;-56
2024/01/12 12:03:59;;;;;;;16.90;9.95;;;;;;;4.14;58.71;101396.00;5577404;31;33212;-56
2024/01/12 12:07:01;;;;;;;19.65;11.27;;;;;;;4.17;58.37;101398.22;5567304;31;33900;-56
2024/01/12 12:10:05;;;;;;;17.35;10.02;;;;;;;4.12;58.27;101389.25;5557972;32;33686;-56
2024/01/12 12:13:10;;;;;;;17.42;10.30;;;;;;;3.95;62.17;101391.59;5569109;31;33731;-56
2024/01/12 12:16:14;;;;;;;17.45;10.68;;;;;;;4.20;62.15;101389.81;5564969;31;33837;-57
2024/01/12 12:19:17;;;;;;;17.02;10.18;;;;;;;3.91;58.75;101387.75;5574314;31;33215;-54
2024/01/12 12:22:20;;;;;;;15.25;10.00;;;;;;;3.76;59.67;101391.44;5569280;31;32934;-53
2024/01/12 12:25:22;;;;;;;14.95;9.75;;;;;;;3.79;61.31;101376.16;5565457;32;34432;-53
2024/01/12 12:28:25;;;;;;;16.50;11.23;;;;;;;3.86;58.84;101383.06;5566689;31;34473;-54
2024/01/12 12:31:27;;;;;;;16.10;10.25;;;;;;;3.48;59.79;101380.34;5560853;31;32394;-53
2024/01/12 12:34:33;;;;;;;15.38;10.02;;;;;;;3.53;60.88;101385.81;5568102;32;34408;-54
2024/01/12 12:37:36;;;;;;;16.87;11.43;;;;;;;3.53;62.48;101376.03;5565429;32;33814;-53
2024/01/12 12:40:39;;;;;;;17.62;10.45;;;;;;;3.75;63.36;101376.56;5568954;31;33553;-54
2024/01/12 12:43:43;;;;;;;18.35;10.70;;;;;;;3.77;66.86;101373.69;5574811;31;34370;-53
2024/01/12 12:46:46;;;;;;;18.77;10.15;;;;;;;4.13;72.36;101367.81;5566019;31;34531;-53
2024/01/12 12:49:48;;;;;;;18.50;10.50;;;;;;;4.21;61.17;101380.03;5569918;31;33810;-57
2024/01/12 12:52:51;;;;;;;15.38;9.80;;;;;;;4.10;62.43;101368.22;5566713;31;33064;-55
2024/01/12 12:55:54;;;;;;;15.30;9.32;;;;;;;4.21;66.38;101359.59;5563802;32;35008;-53
2024/01/12 12:58:56;;;;;;;16.80;10.60;;;;;;;4.18;61.18;101373.31;5566116;32;33581;-54
2024/01/12 13:02:02;;;;;;;20.20;11.32;;;;;;;4.18;67.21;101375.97;5564701;32;33442;-53
2024/01/12 13:05:06;;;;;;;21.62;11.10;;;;;;;4.56;72.12;101380.41;5562446;32;33808;-54
2024/01/12 13:08:08;;;;;;;19.00;10.32;;;;;;;4.50;62.12;101367.97;5564801;32;33671;-53
2024/01/12 13:11:11;;;;;;;16.23;9.85;;;;;;;4.22;60.36;101366.53;5567824;32;34382;-54
2024/01/12 13:14:13;;;;;;;18.12;10.23;;;;;;;4.15;59.61;101368.41;5561102;32;33968;-56
2024/01/12 13:17:16;;;;;;;14.80;9.10;;;;;;;4.13;59.97;101362.50;5565899;32;34336;-56
2024/01/12 13:20:20;;;;;;;17.35;10.38;;;;;;;4.20;60.10;101362.47;5567689;32;34244;-57
2024/01/12 13:23:23;;;;;;;16.95;10.63;;;;;;;4.41;61.33;101356.00;5570394;32;34324;-56
2024/01/12 13:26:26;;;;;;;15.90;9.23;;;;;;;4.36;59.19;101353.19;5569733;32;34498;-55
2024/01/12 13:29:29;;;;;;;16.90;9.70;;;;;;;4.17;58.56;101346.97;5563408;32;34321;-56
2024/01/12 13:32:31;;;;;;;15.20;9.23;;;;;;;4.17;58.19;101349.63;5553160;32;33950;-56
2024/01/12 13:35:34;;;;;;;13.00;8.50;;;;;;;4.26;58.34;101344.88;5569327;32;34031;-54
2024/01/12 13:38:36;;;;;;;16.60;9.95;;;;;;;4.27;57.04;101344.66;5569943;32;33624;-55
2024/01/12 13:41:39;;;;;;;15.77;9.85;;;;;;;4.57;78.07;101333.41;5569201;32;34371;-54
2024/01/12 13:44:42;;;;;;;14.75;9.00;;;;;;;4.24;56.97;101337.94;5563331;32;34445;-54
2024/01/12 13:47:45;;;;;;;16.55;9.32;;;;;;;4.42;60.11;101334.53;5570057;32;34413;-53
2024/01/12 13:50:47;;;;;;;17.45;9.98;;;;;;;4.54;57.71;101332.03;5569086;32;33639;-53
2024/01/12 13:53:52;;;;;;;17.08;9.00;;;;;;;4.60;59.70;101328.50;5566114;32;33705;-54
2024/01/12 13:56:54;;;;;;;14.80;9.05;;;;;;;4.88;66.18;101327.22;5550401;32;34285;-53
2024/01/12 13:59:57;;;;;;;14.98;8.77;;;;;;;4.85;57.73;101325.81;5550464;32;33841;-55
2024/01/12 14:02:59;;;;;;;17.42;8.95;;;;;;;4.82;58.40;101326.25;5550599;32;33648;-55
2024/01/12 14:06:02;;;;;;;17.42;9.10;;;;;;;4.75;60.00;101328.16;5565637;32;34329;-55
2024/01/12 14:09:06;;;;;;;13.45;8.52;;;;;;;4.69;56.86;101326.38;5568614;32;33741;-55
2024/01/12 14:12:09;;;;;;;15.00;8.52;;;;;;;4.85;63.61;101327.66;5560915;32;33628;-55
2024/01/12 14:15:12;;;;;;;12.05;8.10;;;;;;;4.72;54.83;101332.06;5555817;32;33816;-55
2024/01/12 14:18:14;;;;;;;12.98;7.72;;;;;;;4.75;55.21;101338.78;5569964;32;33623;-55
2024/01/12 14:21:17;;;;;;;12.13;7.85;;;;;;;4.57;54.51;101344.88;5569533;32;33721;-55
2024/01/12 14:24:19;;;;;;;12.82;7.75;;;;;;;4.14;55.97;101340.25;5555553;32;33662;-55
2024/01/12 14:27:22;;;;;;;12.50;7.78;;;;;;;4.04;58.73;101336.44;5569104;32;34363;-55
2024/01/12 14:30:24;;;;;;;16.23;8.02;;;;;;;4.03;56.78;101338.28;5568975;32;33626;-55
2024/01/12 14:33:29;;;;;;;14.75;8.05;;;;;;;3.96;66.48;101332.19;5569692;32;34343;-54
2024/01/12 14:36:32;;;;;;;11.57;7.57;;;;;;;4.04;57.30;101321.34;5554278;32;34376;-55
2024/01/12 14:39:34;;;;;;;13.05;7.95;;;;;;;3.97;59.37;101320.53;5552522;32;34405;-55
2024/01/12 14:42:38;;;;;;;18.15;8.70;;;;;;;4.10;61.81;101320.47;5549854;32;33721;-55
2024/01/12 14:45:40;;;;;;;13.25;7.82;;;;;;;4.19;57.63;101323.69;5550373;32;33779;-55
2024/01/12 14:48:42;;;;;;;12.32;7.40;;;;;;;3.86;57.99;101323.88;5565792;32;34132;-55
2024/01/12 14:51:46;;;;;;;13.32;7.95;;;;;;;3.72;57.94;101321.31;5568764;32;34324;-55
2024/01/12 14:54:49;;;;;;;15.13;8.50;;;;;;;3.79;58.71;101317.81;5568342;32;34327;-56
2024/01/12 14:57:51;;;;;;;14.80;8.23;;;;;;;3.84;58.58;101331.22;5567926;32;34312;-56
2024/01/12 15:00:53;;;;;;;16.75;8.00;;;;;;;3.66;57.77;101322.16;5560963;32;33895;-56
2024/01/12 15:03:56;;;;;;;12.77;7.35;;;;;;;3.70;58.19;101327.84;5560302;32;33893;-56
2024/01/12 15:07:16;;;;;;;16.15;7.85;;;;;;;3.85;58.12;101333.69;5552893;32;33663;-56
2024/01/12 15:10:19;;;;;;;11.63;7.47;;;;;;;3.87;63.14;101336.94;5569269;32;33687;-56
2024/01/12 15:13:21;;;;;;;21.25;8.40;;;;;;;3.86;57.82;101337.16;5568855;32;33662;-56
2024/01/12 15:16:24;;;;;;;12.90;7.32;;;;;;;3.89;63.30;101329.56;5568798;32;34218;-56
2024/01/12 15:19:27;;;;;;;12.45;7.68;;;;;;;4.05;59.92;101333.56;5569303;32;33872;-55
2024/01/12 15:22:30;;;;;;;14.57;7.75;;;;;;;3.81;58.00;101342.25;5568677;32;33158;-55
2024/01/12 15:25:33;;;;;;;11.10;7.03;;;;;;;3.87;57.50;101341.41;5559224;32;33576;-56
2024/01/12 15:28:35;;;;;;;15.52;9.80;;;;;;;3.60;56.75;101341.53;5549472;32;33564;-56
2024/01/12 15:31:38;;;;;;;14.50;7.57;;;;;;;3.59;59.73;101342.56;5556974;32;33703;-56
2024/01/12 15:34:40;;;;;;;12.68;8.13;;;;;;;3.53;58.34;101341.56;5563369;32;34372;-56
2024/01/12 15:37:43;;;;;;;13.13;6.97;;;;;;;3.63;57.14;101340.31;5566640;32;33732;-55
2024/01/12 15:40:45;;;;;;;13.05;8.00;;;;;;;3.60;57.13;101348.69;5565693;32;33656;-56
2024/01/12 15:43:48;;;;;;;13.65;8.27;;;;;;;3.68;56.98;101349.28;5569047;32;34319;-55
2024/01/12 15:46:50;;;;;;;10.85;7.45;;;;;;;3.62;58.43;101336.84;5553741;32;34430;-56
2024/01/12 15:49:52;;;;;;;11.60;7.82;;;;;;;3.53;57.78;101346.88;5554694;32;33649;-56
2024/01/12 15:52:56;;;;;;;13.75;7.85;;;;;;;3.36;57.60;101352.84;5562316;32;34275;-55
2024/01/12 15:55:59;;;;;;;15.23;8.23;;;;;;;3.37;59.08;101354.47;5552840;32;33598;-56
2024/01/12 15:59:01;;;;;;;14.15;8.20;;;;;;;3.57;58.02;101355.22;5567864;32;33882;-56
2024/01/12 16:02:04;;;;;;;14.30;8.73;;;;;;;3.50;59.38;101359.72;5568969;32;34464;-56
2024/01/12 16:05:07;;;;;;;15.25;8.38;;;;;;;3.36;58.09;101356.31;5569179;32;33782;-56
2024/01/12 16:08:09;;;;;;;14.77;8.57;;;;;;;3.37;58.28;101349.16;5569097;32;33760;-56
2024/01/12 16:11:18;;;;;;;19.37;8.70;;;;;;;3.39;60.06;101361.19;5569058;32;33590;-56
2024/01/12 16:14:21;;;;;;;12.50;7.50;;;;;;;3.51;59.83;101350.78;5568986;32;34413;-56
2024/01/12 16:17:24;;;;;;;12.95;7.50;;;;;;;3.50;58.32;101355.25;5569144;32;33632;-56
2024/01/12 16:20:26;;;;;;;11.55;7.87;;;;;;;3.17;57.38;101342.09;5568839;32;34339;-56
2024/01/12 16:23:28;;;;;;;13.00;7.87;;;;;;;3.01;57.76;101337.22;5569110;32;33678;-59
2024/01/12 16:26:37;;;;;;;14.55;7.53;;;;;;;3.18;59.71;101346.38;5568746;32;33748;-59
2024/01/12 16:29:40;;;;;;;13.55;7.15;;;;;;;3.25;59.39;101341.06;5569087;32;33681;-59
2024/01/12 16:32:42;;;;;;;10.95;7.05;;;;;;;3.24;58.60;101345.53;5568560;32;33669;-59
2024/01/12 16:35:48;;;;;;;15.23;7.68;;;;;;;3.15;58.93;101335.37;5568779;32;34398;-58
2024/01/12 16:38:50;;;;;;;13.25;7.40;;;;;;;3.25;59.25;101339.22;5568428;32;33716;-59
2024/01/12 16:41:55;;;;;;;16.50;7.40;;;;;;;3.30;57.74;101339.41;5568377;32;33616;-58
2024/01/12 16:44:58;;;;;;;14.57;7.18;;;;;;;3.23;58.50;101335.97;5568505;32;33811;-58
2024/01/12 16:48:03;;;;;;;10.13;6.70;;;;;;;3.21;60.25;101335.37;5568403;32;33518;-58
